Time;durP1;ratioP1;P1;durP2;ratioP2;P2;SDS_P1;SDS_P2;PMS_P1;PMS_P2;Temp;Humidity;BMP_temperature;BMP_pressure;BME280_temperature;BME280_humidity;BME280_pressure;Samples;Min_cycle;Max_cycle;Signal;HPM_P1;HPM_P2
2023/08/18 00:00:38;;;;;;;5.97;1.90;;;17.10;99.90;;;;;;5068225;28;20063;-71
2023/08/18 00:03:04;;;;;;;9.00;1.52;;;17.10;99.90;;;;;;5056863;28;254050;-71
2023/08/18 00:05:30;;;;;;;6.60;1.48;;;17.10;99.90;;;;;;5061028;28;20052;-71
2023/08/18 00:07:56;;;;;;;7.30;1.70;;;17.10;99.90;;;;;;5049944;28;267936;-73
2023/08/18 00:10:22;;;;;;;7.63;1.70;;;17.10;99.90;;;;;;5063542;28;20048;-70
2023/08/18 00:12:48;;;;;;;8.52;1.85;;;17.00;99.90;;;;;;5053313;28;275367;-70
2023/08/18 00:15:15;;;;;;;7.80;1.73;;;17.00;99.90;;;;;;5067133;28;20052;-71
2023/08/18 00:17:42;;;;;;;7.38;1.92;;;17.00;99.90;;;;;;5045600;28;181815;-72
2023/08/18 00:20:09;;;;;;;5.32;1.58;;;17.00;99.90;;;;;;5072207;28;20060;-71
2023/08/18 00:22:35;;;;;;;6.38;1.70;;;17.00;99.90;;;;;;5047684;28;265987;-72
2023/08/18 00:25:01;;;;;;;10.88;2.08;;;17.00;99.90;;;;;;5057738;28;20525;-71
2023/08/18 00:27:27;;;;;;;8.70;2.03;;;17.00;99.90;;;;;;5046161;28;266273;-71
2023/08/18 00:29:53;;;;;;;8.75;2.00;;;17.00;99.90;;;;;;5059804;28;20163;-71
2023/08/18 00:32:19;;;;;;;7.13;2.10;;;17.00;99.90;;;;;;5049694;28;261130;-71
2023/08/18 00:34:45;;;;;;;10.15;2.10;;;17.00;99.90;;;;;;5073783;28;20060;-71
2023/08/18 00:37:13;;;;;;;8.02;1.90;;;17.00;99.90;;;;;;5044849;28;264473;-70
2023/08/18 00:39:39;;;;;;;9.30;1.95;;;17.00;99.90;;;;;;5071061;28;20048;-71
2023/08/18 00:42:05;;;;;;;11.00;2.00;;;17.00;99.90;;;;;;5048890;28;274166;-73
2023/08/18 00:44:31;;;;;;;10.70;2.00;;;16.90;99.90;;;;;;5078262;28;20057;-74
2023/08/18 00:46:58;;;;;;;7.18;1.98;;;16.90;99.90;;;;;;5062618;28;268976;-72
2023/08/18 00:49:25;;;;;;;8.85;2.10;;;16.90;99.90;;;;;;5069572;28;20052;-71
2023/08/18 00:51:51;;;;;;;6.82;2.00;;;16.90;99.90;;;;;;5026237;28;278692;-71
2023/08/18 00:54:17;;;;;;;9.35;1.90;;;16.90;99.90;;;;;;5079452;28;20491;-71
2023/08/18 00:56:45;;;;;;;8.23;2.15;;;16.90;99.90;;;;;;5045292;28;254830;-71
2023/08/18 00:59:13;;;;;;;7.60;1.92;;;16.90;99.90;;;;;;5078843;28;20059;-71
2023/08/18 01:01:41;;;;;;;9.48;2.20;;;17.00;99.90;;;;;;5043282;28;259796;-71
2023/08/18 01:04:07;;;;;;;9.90;2.00;;;16.90;99.90;;;;;;5071526;28;20507;-74
2023/08/18 01:06:33;;;;;;;8.43;2.30;;;16.90;99.90;;;;;;5058274;28;20063;-74
2023/08/18 01:08:59;;;;;;;9.05;2.20;;;16.90;99.90;;;;;;5051934;28;137434;-73
2023/08/18 01:11:34;;;;;;;9.52;2.10;;;16.90;99.90;;;;;;5070642;28;20495;-71
2023/08/18 01:14:15;;;;;;;9.52;2.42;;;16.90;99.90;;;;;;5057054;28;159806;-72
2023/08/18 01:17:07;;;;;;;10.32;2.83;;;16.90;99.90;;;;;;5045087;28;258314;-72
2023/08/18 01:19:34;;;;;;;8.50;2.08;;;16.90;99.90;;;;;;5068291;28;20055;-73
2023/08/18 01:22:02;;;;;;;11.55;2.40;;;16.80;99.90;;;;;;5042259;28;278337;-71
2023/08/18 01:24:29;;;;;;;10.60;2.35;;;16.80;99.90;;;;;;5071395;28;20065;-71
2023/08/18 01:26:55;;;;;;;9.20;2.55;;;16.80;99.90;;;;;;5046674;28;258064;-71
2023/08/18 01:29:22;;;;;;;8.93;2.40;;;16.80;99.90;;;;;;5070958;28;20048;-71
2023/08/18 01:32:00;;;;;;;9.40;2.40;;;16.80;99.90;;;;;;5045653;28;279783;-71
2023/08/18 01:34:29;;;;;;;10.88;2.22;;;16.80;99.90;;;;;;5072136;28;20064;-71
2023/08/18 01:36:57;;;;;;;11.20;2.80;;;16.80;99.90;;;;;;5030369;28;268175;-71
2023/08/18 01:39:25;;;;;;;10.27;2.60;;;16.80;99.90;;;;;;5077580;28;20059;-70
2023/08/18 01:41:52;;;;;;;9.83;2.30;;;16.80;99.90;;;;;;5046788;28;276382;-72
2023/08/18 01:44:18;;;;;;;9.07;2.20;;;16.80;99.90;;;;;;5071899;28;20044;-70
2023/08/18 01:46:46;;;;;;;8.32;2.10;;;16.80;99.90;;;;;;5043840;28;266062;-70
2023/08/18 01:49:13;;;;;;;8.15;2.17;;;16.80;99.90;;;;;;5059968;28;20051;-72
2023/08/18 01:51:40;;;;;;;10.93;2.30;;;16.80;99.90;;;;;;5035095;28;266726;-70
2023/08/18 01:54:06;;;;;;;10.40;2.50;;;16.80;99.90;;;;;;5076603;28;20299;-73
2023/08/18 01:56:32;;;;;;;7.82;2.25;;;16.80;99.90;;;;;;5053741;28;20400;-75
2023/08/18 01:58:59;;;;;;;9.25;2.40;;;16.80;99.90;;;;;;5061846;28;255967;-71
2023/08/18 02:01:25;;;;;;;8.32;2.33;;;16.80;99.90;;;;;;5060299;28;20685;-71
2023/08/18 02:03:52;;;;;;;9.07;2.58;;;16.80;99.90;;;;;;5051088;28;85634;-73
2023/08/18 02:06:18;;;;;;;8.63;2.50;;;16.80;99.90;;;;;;5061925;28;20055;-71
2023/08/18 02:08:45;;;;;;;10.63;2.28;;;16.80;99.90;;;;;;5047589;28;138256;-72
2023/08/18 02:11:11;;;;;;;10.07;2.83;;;16.80;99.90;;;;;;5066571;28;20800;-71
2023/08/18 02:13:37;;;;;;;9.68;2.38;;;16.80;99.90;;;;;;5058995;28;267096;-72
2023/08/18 02:16:03;;;;;;;9.75;2.60;;;16.80;99.90;;;;;;5063480;28;20055;-71
2023/08/18 02:18:30;;;;;;;9.43;2.83;;;16.80;99.90;;;;;;5063529;28;240297;-71
2023/08/18 02:20:57;;;;;;;9.23;2.67;;;16.80;99.90;;;;;;5063989;28;20049;-71
2023/08/18 02:23:24;;;;;;;7.20;2.38;;;16.80;99.90;;;;;;5054262;28;267046;-71
2023/08/18 02:25:50;;;;;;;9.75;2.47;;;16.80;99.90;;;;;;5066626;28;22059;-72
2023/08/18 02:28:19;;;;;;;10.27;2.30;;;16.90;99.90;;;;;;5053354;28;256600;-71
2023/08/18 02:30:45;;;;;;;11.38;2.45;;;16.90;99.90;;;;;;5066312;28;20055;-71
2023/08/18 02:33:11;;;;;;;10.57;3.10;;;16.90;99.90;;;;;;5054716;28;274833;-71
2023/08/18 02:35:37;;;;;;;10.80;2.78;;;16.90;99.90;;;;;;5071177;28;20052;-72
2023/08/18 02:38:04;;;;;;;8.30;2.60;;;16.80;99.90;;;;;;5061887;28;276041;-71
2023/08/18 02:40:30;;;;;;;9.43;3.08;;;16.80;99.90;;;;;;5071531;28;20056;-71
2023/08/18 02:42:56;;;;;;;10.45;3.03;;;16.80;99.90;;;;;;5048030;28;225529;-71
2023/08/18 02:45:22;;;;;;;9.55;3.05;;;16.80;99.90;;;;;;5065472;28;20056;-76
2023/08/18 02:47:48;;;;;;;10.88;3.33;;;16.80;99.90;;;;;;5056840;28;20445;-73
2023/08/18 02:50:14;;;;;;;11.05;3.40;;;16.80;99.90;;;;;;5058158;28;20048;-71
2023/08/18 02:52:40;;;;;;;9.20;3.28;;;16.70;99.90;;;;;;5038685;28;136476;-73
2023/08/18 02:55:06;;;;;;;9.75;3.30;;;16.80;99.90;;;;;;5056558;28;20071;-71
2023/08/18 02:57:33;;;;;;;9.98;3.40;;;16.80;99.90;;;;;;5050144;28;270693;-72
2023/08/18 02:59:59;;;;;;;12.85;3.15;;;16.80;99.90;;;;;;5063862;28;20048;-71
2023/08/18 03:02:25;;;;;;;11.32;3.15;;;16.80;99.90;;;;;;5058562;28;254487;-71
2023/08/18 03:04:51;;;;;;;10.80;3.30;;;16.80;99.90;;;;;;5060062;28;20415;-73
2023/08/18 03:07:17;;;;;;;10.30;3.63;;;16.80;99.90;;;;;;5050792;28;265709;-73
2023/08/18 03:09:43;;;;;;;11.07;3.28;;;16.70;99.90;;;;;;5055120;28;20059;-72
2023/08/18 03:12:09;;;;;;;11.30;3.60;;;16.70;99.90;;;;;;5050127;28;258661;-76
2023/08/18 03:14:35;;;;;;;10.25;3.47;;;16.70;99.90;;;;;;5068154;28;20052;-72
2023/08/18 03:17:01;;;;;;;10.25;3.67;;;16.70;99.90;;;;;;5046264;28;258832;-71
2023/08/18 03:19:27;;;;;;;10.98;3.50;;;16.70;99.90;;;;;;5078485;28;20059;-71
2023/08/18 03:21:53;;;;;;;9.77;3.40;;;16.80;99.90;;;;;;5045821;28;271496;-73
2023/08/18 03:24:20;;;;;;;10.77;3.33;;;16.80;99.90;;;;;;5064791;28;20064;-70
2023/08/18 03:26:46;;;;;;;8.55;3.10;;;16.80;99.90;;;;;;5047517;28;260280;-70
2023/08/18 03:29:12;;;;;;;8.70;3.33;;;16.80;99.90;;;;;;5081075;28;20055;-71
2023/08/18 03:31:38;;;;;;;11.57;3.85;;;16.70;99.90;;;;;;5047068;28;255293;-72
2023/08/18 03:34:04;;;;;;;9.38;3.42;;;16.80;99.90;;;;;;5081614;28;20494;-71
2023/08/18 03:36:30;;;;;;;10.32;3.50;;;16.80;99.90;;;;;;5058807;28;20056;-70
2023/08/18 03:38:56;;;;;;;9.13;3.58;;;16.80;99.90;;;;;;5046802;28;118059;-71
2023/08/18 03:41:22;;;;;;;12.45;3.40;;;16.80;99.90;;;;;;5061640;28;20056;-70
2023/08/18 03:43:48;;;;;;;12.02;3.85;;;16.80;99.90;;;;;;5052459;28;269801;-70
2023/08/18 03:46:22;;;;;;;11.60;3.70;;;16.80;99.90;;;;;;5063545;28;20061;-74
2023/08/18 03:48:49;;;;;;;11.45;3.63;;;16.80;99.90;;;;;;5049069;28;267709;-70
2023/08/18 03:51:15;;;;;;;12.23;3.83;;;16.80;99.90;;;;;;5062212;28;20056;-72
2023/08/18 03:53:41;;;;;;;10.70;3.72;;;16.80;99.90;;;;;;5038175;28;263546;-71
2023/08/18 03:56:08;;;;;;;9.80;4.15;;;16.80;99.90;;;;;;5062684;28;20049;-71
2023/08/18 03:58:34;;;;;;;10.90;4.07;;;16.80;99.90;;;;;;5058984;28;259166;-71
2023/08/18 04:01:06;;;;;;;10.50;4.00;;;16.80;99.90;;;;;;5060174;28;20071;-71
2023/08/18 04:03:38;;;;;;;10.93;4.15;;;16.80;99.90;;;;;;5044649;28;281529;-75
2023/08/18 04:06:05;;;;;;;11.30;3.90;;;16.70;99.90;;;;;;5060155;28;20512;-71
2023/08/18 04:08:33;;;;;;;12.85;4.25;;;16.80;99.90;;;;;;5048930;28;280729;-71
2023/08/18 04:10:59;;;;;;;11.93;4.20;;;16.80;99.90;;;;;;5058420;28;20055;-72
2023/08/18 04:13:26;;;;;;;11.35;4.28;;;16.80;99.90;;;;;;5048824;28;274611;-72
2023/08/18 04:15:52;;;;;;;10.80;3.90;;;16.70;99.90;;;;;;5057768;28;20052;-73
2023/08/18 04:18:18;;;;;;;10.50;3.92;;;16.70;99.90;;;;;;5034900;28;249491;-71
2023/08/18 04:20:44;;;;;;;9.32;3.63;;;16.80;99.90;;;;;;5061490;28;20052;-71
2023/08/18 04:23:10;;;;;;;14.02;5.07;;;16.80;99.90;;;;;;5055719;28;275242;-72
2023/08/18 04:25:36;;;;;;;14.18;4.47;;;16.80;99.90;;;;;;5064445;28;20056;-75
2023/08/18 04:28:03;;;;;;;10.68;3.63;;;16.80;99.90;;;;;;5050776;28;284903;-71
2023/08/18 04:30:29;;;;;;;12.88;4.78;;;16.80;99.90;;;;;;5060770;28;20052;-71
2023/08/18 04:32:55;;;;;;;10.10;4.90;;;16.80;99.90;;;;;;5056833;28;265619;-70
2023/08/18 04:35:22;;;;;;;11.38;5.13;;;16.80;99.90;;;;;;5069080;28;20053;-72
2023/08/18 04:37:48;;;;;;;14.07;5.28;;;16.80;99.90;;;;;;5041134;28;172372;-71
2023/08/18 04:40:14;;;;;;;10.55;4.93;;;16.80;99.90;;;;;;5065847;28;20048;-72
2023/08/18 04:42:40;;;;;;;13.85;5.50;;;16.80;99.90;;;;;;5043699;28;203464;-71
2023/08/18 04:45:07;;;;;;;13.35;5.80;;;16.80;99.90;;;;;;5054533;28;20056;-71
2023/08/18 04:47:33;;;;;;;16.00;5.45;;;16.80;99.90;;;;;;5055538;28;23165;-70
2023/08/18 04:49:59;;;;;;;12.90;6.05;;;16.90;99.90;;;;;;5074706;28;20063;-70
2023/08/18 04:52:25;;;;;;;11.60;5.57;;;16.80;99.90;;;;;;5036769;28;267109;-71
2023/08/18 04:54:51;;;;;;;13.30;6.18;;;16.80;99.90;;;;;;5074318;28;20067;-70
2023/08/18 04:57:18;;;;;;;13.40;5.47;;;16.90;99.90;;;;;;5049429;28;155960;-72
2023/08/18 04:59:44;;;;;;;14.93;6.00;;;16.90;99.90;;;;;;5070807;28;20059;-73
2023/08/18 05:02:10;;;;;;;15.25;6.22;;;16.80;99.90;;;;;;5054402;28;245004;-71
2023/08/18 05:04:36;;;;;;;15.43;5.95;;;16.90;99.90;;;;;;5067159;28;20060;-72
2023/08/18 05:07:03;;;;;;;13.32;5.75;;;16.80;99.90;;;;;;5042694;28;266843;-71
2023/08/18 05:09:30;;;;;;;12.80;6.38;;;16.90;99.90;;;;;;5072959;28;20614;-72
2023/08/18 05:11:56;;;;;;;14.15;6.82;;;16.90;99.90;;;;;;5050976;28;259833;-71
2023/08/18 05:14:22;;;;;;;15.73;7.15;;;16.90;99.90;;;;;;5069807;28;20064;-71
2023/08/18 05:16:48;;;;;;;15.48;7.07;;;16.90;99.90;;;;;;5041817;28;297601;-72
2023/08/18 05:19:15;;;;;;;15.48;7.20;;;16.90;99.90;;;;;;5078391;28;20052;-72
2023/08/18 05:21:41;;;;;;;12.95;6.65;;;16.90;99.90;;;;;;5048728;28;268846;-72
2023/08/18 05:24:07;;;;;;;12.35;6.53;;;16.80;99.90;;;;;;5070656;28;20064;-74
2023/08/18 05:26:33;;;;;;;15.95;6.90;;;16.90;99.90;;;;;;5065448;28;20052;-72
2023/08/18 05:28:59;;;;;;;13.88;6.80;;;16.90;99.90;;;;;;5040799;28;251136;-72
2023/08/18 05:31:25;;;;;;;15.15;7.55;;;16.90;99.90;;;;;;5064601;28;20044;-72
2023/08/18 05:33:52;;;;;;;18.67;8.40;;;16.90;99.90;;;;;;5053353;28;285994;-71
2023/08/18 05:36:18;;;;;;;16.70;7.90;;;16.90;99.90;;;;;;5062738;28;20052;-71
2023/08/18 05:38:44;;;;;;;18.02;7.68;;;17.00;99.90;;;;;;5056954;28;255498;-69
2023/08/18 05:41:14;;;;;;;18.30;8.68;;;16.90;99.90;;;;;;5060464;28;20068;-70
2023/08/18 05:43:41;;;;;;;16.47;8.53;;;17.00;99.90;;;;;;5055519;28;257101;-70
2023/08/18 05:46:08;;;;;;;18.58;7.95;;;16.90;99.90;;;;;;5061836;28;20055;-71
2023/08/18 05:48:34;;;;;;;16.52;7.47;;;17.00;99.90;;;;;;5047573;28;258407;-71
2023/08/18 05:51:00;;;;;;;18.45;8.30;;;17.00;99.90;;;;;;5057995;28;20435;-72
2023/08/18 05:53:27;;;;;;;17.92;8.00;;;17.00;99.90;;;;;;5022490;28;201971;-71
2023/08/18 05:55:53;;;;;;;19.23;8.38;;;17.00;99.90;;;;;;5036668;28;20056;-71
2023/08/18 05:58:19;;;;;;;16.45;8.52;;;17.00;99.90;;;;;;5051336;28;114403;-71
2023/08/18 06:00:49;;;;;;;18.15;8.50;;;17.00;99.90;;;;;;5056184;28;20515;-75
2023/08/18 06:03:19;;;;;;;17.20;7.90;;;17.10;99.90;;;;;;5048638;28;157819;-72
2023/08/18 06:05:49;;;;;;;18.13;8.25;;;17.20;99.90;;;;;;5068623;28;20513;-70
2023/08/18 06:08:15;;;;;;;20.20;8.70;;;17.10;99.90;;;;;;5056698;28;260796;-71
2023/08/18 06:10:42;;;;;;;16.52;8.52;;;17.20;99.90;;;;;;5063352;28;20282;-72
2023/08/18 06:13:08;;;;;;;16.23;8.23;;;17.20;99.90;;;;;;5048014;28;291116;-71
2023/08/18 06:15:35;;;;;;;19.55;7.63;;;17.20;99.90;;;;;;5060072;28;20056;-70
2023/08/18 06:18:01;;;;;;;18.90;8.63;;;17.20;99.90;;;;;;5053467;28;244712;-70
2023/08/18 06:20:27;;;;;;;17.90;8.82;;;17.20;99.90;;;;;;5069168;28;20056;-71
2023/08/18 06:22:54;;;;;;;19.25;8.35;;;17.20;99.90;;;;;;5047503;28;258942;-72
2023/08/18 06:25:20;;;;;;;16.08;8.50;;;17.20;99.90;;;;;;5072206;28;20052;-73
2023/08/18 06:27:46;;;;;;;18.02;8.15;;;17.30;99.90;;;;;;5052836;28;40794;-71
2023/08/18 06:30:12;;;;;;;18.38;8.40;;;17.30;99.90;;;;;;5069939;28;20422;-72
2023/08/18 06:32:39;;;;;;;18.17;8.20;;;17.30;99.90;;;;;;5040344;28;251469;-71
2023/08/18 06:35:05;;;;;;;20.23;8.48;;;17.40;99.90;;;;;;5068090;28;20044;-71
2023/08/18 06:37:31;;;;;;;22.02;8.07;;;17.40;99.90;;;;;;5043179;28;265321;-70
2023/08/18 06:39:57;;;;;;;21.02;8.73;;;17.30;99.90;;;;;;5068817;28;20060;-70
2023/08/18 06:42:23;;;;;;;19.20;8.55;;;17.30;99.90;;;;;;5044911;28;264969;-74
2023/08/18 06:44:49;;;;;;;21.40;8.23;;;17.30;99.90;;;;;;5074396;28;20052;-70
2023/08/18 06:47:15;;;;;;;15.75;7.18;;;17.30;99.90;;;;;;5044480;28;263452;-71
2023/08/18 06:49:43;;;;;;;21.83;8.48;;;17.30;99.90;;;;;;5065744;28;20057;-71
2023/08/18 06:52:09;;;;;;;19.80;8.93;;;17.30;99.90;;;;;;5031449;28;269743;-72
2023/08/18 06:54:35;;;;;;;20.30;8.55;;;17.30;99.90;;;;;;5071764;28;20056;-72
2023/08/18 06:57:01;;;;;;;22.80;8.73;;;17.40;99.90;;;;;;5050779;28;268281;-71
2023/08/18 06:59:28;;;;;;;25.15;8.52;;;17.30;99.90;;;;;;5072252;28;20053;-70
2023/08/18 07:01:54;;;;;;;20.65;8.27;;;17.30;99.90;;;;;;5063008;28;20037;-71
2023/08/18 07:04:20;;;;;;;20.02;8.98;;;17.30;99.90;;;;;;5064530;28;20056;-71
2023/08/18 07:06:47;;;;;;;21.33;9.10;;;17.40;99.90;;;;;;5065206;28;20430;-71
2023/08/18 07:09:13;;;;;;;23.08;8.68;;;17.40;99.90;;;;;;5055936;28;271882;-71
2023/08/18 07:11:39;;;;;;;23.55;9.02;;;17.50;99.90;;;;;;5061413;28;20044;-75
2023/08/18 07:14:05;;;;;;;18.15;8.85;;;17.60;99.90;;;;;;5070160;28;278230;-73
2023/08/18 07:16:31;;;;;;;20.73;8.60;;;17.60;99.90;;;;;;5067714;28;20061;-71
2023/08/18 07:18:57;;;;;;;20.88;8.70;;;17.60;99.90;;;;;;5055679;28;278856;-71
2023/08/18 07:21:24;;;;;;;21.77;8.10;;;17.60;99.90;;;;;;5065779;28;20059;-71
2023/08/18 07:23:50;;;;;;;15.82;7.97;;;17.70;99.90;;;;;;5053194;28;268744;-70
2023/08/18 07:26:16;;;;;;;18.80;8.02;;;17.80;99.90;;;;;;5061807;28;20151;-70
2023/08/18 07:28:42;;;;;;;22.15;8.10;;;17.90;99.90;;;;;;5047351;28;96467;-70
2023/08/18 07:31:10;;;;;;;23.20;8.35;;;18.10;99.90;;;;;;5064785;28;20053;-74
2023/08/18 07:33:36;;;;;;;20.90;7.90;;;18.10;99.90;;;;;;5055155;28;267471;-71
2023/08/18 07:36:02;;;;;;;20.85;8.10;;;18.20;99.90;;;;;;5063545;28;20055;-75
2023/08/18 07:38:33;;;;;;;20.00;8.30;;;18.20;99.90;;;;;;5055660;28;270486;-71
2023/08/18 07:40:59;;;;;;;20.65;7.28;;;18.30;99.90;;;;;;5065859;28;20526;-72
2023/08/18 07:43:25;;;;;;;18.92;7.93;;;18.40;99.90;;;;;;5058439;28;270302;-72
2023/08/18 07:45:51;;;;;;;20.52;7.22;;;18.40;99.90;;;;;;5066687;28;20060;-72
2023/08/18 07:48:17;;;;;;;22.90;7.43;;;18.30;99.90;;;;;;5058216;28;272321;-72
2023/08/18 07:50:43;;;;;;;18.05;7.28;;;18.30;99.90;;;;;;5069149;28;20422;-73
2023/08/18 07:53:10;;;;;;;18.73;7.60;;;18.30;99.90;;;;;;5015556;28;95537;-71
2023/08/18 07:55:36;;;;;;;21.67;7.80;;;18.30;99.90;;;;;;5057961;28;20052;-72
2023/08/18 07:58:04;;;;;;;18.58;7.70;;;18.30;99.90;;;;;;5033599;28;117798;-71
2023/08/18 08:00:30;;;;;;;19.80;8.00;;;18.20;99.90;;;;;;5061639;28;20063;-72
2023/08/18 08:02:57;;;;;;;20.42;7.38;;;18.30;99.90;;;;;;5011804;28;215864;-72
2023/08/18 08:05:23;;;;;;;20.38;7.85;;;18.30;99.90;;;;;;5057002;28;20143;-70
2023/08/18 08:07:50;;;;;;;21.63;7.95;;;18.30;99.90;;;;;;5030847;28;76934;-71
2023/08/18 08:10:17;;;;;;;21.83;7.50;;;18.40;99.90;;;;;;5064664;28;20067;-71
2023/08/18 08:12:44;;;;;;;21.10;8.15;;;18.60;99.90;;;;;;5021408;28;51497;-71
2023/08/18 08:15:13;;;;;;;21.25;8.35;;;18.60;99.90;;;;;;5044410;28;20053;-71
2023/08/18 08:17:39;;;;;;;21.08;8.23;;;18.70;99.90;;;;;;5001491;28;207891;-71
2023/08/18 08:20:15;;;;;;;18.02;8.02;;;18.70;99.90;;;;;;5041867;28;20045;-71
2023/08/18 08:22:46;;;;;;;21.80;8.07;;;18.80;99.90;;;;;;5008934;28;102653;-74
2023/08/18 08:25:12;;;;;;;;;;;19.00;99.90;;;;;;5043652;28;20401;-71
2023/08/18 08:27:39;;;;;;;19.25;7.35;;;19.10;99.90;;;;;;5008386;28;142044;-76
2023/08/18 08:30:11;;;;;;;22.08;8.02;;;19.10;99.90;;;;;;5043377;28;20061;-71
2023/08/18 08:32:37;;;;;;;20.55;7.88;;;19.20;99.90;;;;;;5001114;28;226130;-72
2023/08/18 08:35:04;;;;;;;20.00;8.15;;;19.20;99.90;;;;;;5039770;28;20059;-75
2023/08/18 08:37:30;;;;;;;20.90;7.18;;;19.20;99.90;;;;;;5005626;28;33417;-71
2023/08/18 08:39:56;;;;;;;22.08;7.35;;;19.30;99.90;;;;;;5029623;28;20097;-71
2023/08/18 08:42:23;;;;;;;18.48;7.22;;;19.30;99.90;;;;;;5006955;28;30648;-71
2023/08/18 08:44:50;;;;;;;18.05;7.60;;;19.40;99.90;;;;;;5047188;28;20056;-71
2023/08/18 08:47:17;;;;;;;19.23;7.55;;;19.50;99.90;;;;;;5003937;28;161001;-75
2023/08/18 08:49:46;;;;;;;17.02;6.75;;;19.70;99.90;;;;;;5055346;28;20064;-72
2023/08/18 08:52:13;;;;;;;15.73;6.47;;;19.80;99.90;;;;;;5017430;28;20515;-71
2023/08/18 08:54:47;;;;;;;16.33;6.22;;;19.90;99.90;;;;;;5065058;28;20056;-75
2023/08/18 08:57:14;;;;;;;16.00;6.15;;;19.90;99.90;;;;;;5013826;28;25816;-73
2023/08/18 08:59:40;;;;;;;13.20;5.60;;;20.00;99.90;;;;;;5057458;28;20155;-72
2023/08/18 09:02:06;;;;;;;16.48;6.40;;;20.00;99.90;;;;;;5018234;28;25703;-73
2023/08/18 09:04:32;;;;;;;16.08;6.47;;;20.00;99.90;;;;;;5055181;28;20581;-73
2023/08/18 09:06:59;;;;;;;17.17;6.60;;;20.10;99.90;;;;;;5019092;28;122506;-72
2023/08/18 09:09:25;;;;;;;16.02;6.30;;;20.10;99.90;;;;;;5058705;28;20048;-72
2023/08/18 09:11:51;;;;;;;15.93;6.20;;;20.20;99.90;;;;;;5029422;28;20052;-71
2023/08/18 09:14:17;;;;;;;14.35;6.20;;;20.30;99.90;;;;;;5031190;28;165394;-71
2023/08/18 09:16:44;;;;;;;13.05;5.82;;;20.60;99.90;;;;;;5032938;28;20608;-72
2023/08/18 09:19:14;;;;;;;15.57;6.03;;;20.80;99.90;;;;;;5050725;28;56381;-70
2023/08/18 09:21:41;;;;;;;15.13;6.10;;;20.90;99.90;;;;;;5031140;28;21258;-71
2023/08/18 09:24:08;;;;;;;14.95;6.47;;;21.00;99.90;;;;;;5030514;28;104824;-75
2023/08/18 09:26:35;;;;;;;16.98;5.82;;;21.00;99.90;;;;;;5048433;28;20055;-72
2023/08/18 09:29:02;;;;;;;13.52;5.55;;;21.20;99.90;;;;;;4931184;28;2994176;-74
2023/08/18 09:31:30;;;;;;;14.95;5.53;;;21.20;99.90;;;;;;5063288;28;20060;-70
2023/08/18 09:33:56;;;;;;;15.20;6.05;;;21.30;99.90;;;;;;4995585;28;97727;-71
2023/08/18 09:36:22;;;;;;;13.95;5.75;;;21.40;99.90;;;;;;5038385;28;20068;-70
2023/08/18 09:38:48;;;;;;;13.00;5.40;;;21.40;99.90;;;;;;5013780;28;35354;-71
2023/08/18 09:41:15;;;;;;;13.00;5.30;;;21.50;99.90;;;;;;5062585;28;20075;-70
2023/08/18 09:43:41;;;;;;;13.95;5.70;;;21.70;99.90;;;;;;5013673;28;150356;-71
2023/08/18 09:46:12;;;;;;;14.77;6.35;;;21.80;99.90;;;;;;5050102;28;20517;-72
2023/08/18 09:48:39;;;;;;;15.48;5.75;;;21.80;99.90;;;;;;5029460;28;170708;-70
2023/08/18 09:51:09;;;;;;;16.67;6.60;;;21.90;99.90;;;;;;5057093;28;20079;-70
2023/08/18 09:53:39;;;;;;;;;;;22.10;99.90;;;;;;4997208;28;132077;-72
2023/08/18 09:56:13;;;;;;;14.13;6.40;;;22.20;99.90;;;;;;5058431;28;19924;-71
2023/08/18 09:58:56;;;;;;;15.02;6.82;;;22.20;99.90;;;;;;5010140;28;60162;-73
2023/08/18 10:01:25;;;;;;;15.98;6.28;;;22.20;99.90;;;;;;5061001;28;20052;-72
2023/08/18 10:03:54;;;;;;;16.30;6.75;;;22.10;99.90;;;;;;5009396;28;160332;-71
2023/08/18 10:06:21;;;;;;;16.83;6.50;;;22.00;99.90;;;;;;5031994;28;20057;-71
2023/08/18 10:08:48;;;;;;;14.48;6.18;;;22.00;99.90;;;;;;5016431;28;93125;-70
2023/08/18 10:11:15;;;;;;;14.48;6.32;;;21.90;99.90;;;;;;5034021;28;20045;-70
2023/08/18 10:13:41;;;;;;;16.00;6.30;;;21.80;99.90;;;;;;4990817;28;194715;-71
2023/08/18 10:16:08;;;;;;;14.20;6.15;;;21.90;99.90;;;;;;5038148;28;20427;-74
2023/08/18 10:18:34;;;;;;;12.73;5.97;;;22.10;99.90;;;;;;5008430;28;169696;-72
2023/08/18 10:21:01;;;;;;;13.25;6.03;;;22.20;99.90;;;;;;5039821;28;20054;-75
2023/08/18 10:23:30;;;;;;;15.40;5.80;;;22.20;99.90;;;;;;4984178;28;123152;-70
2023/08/18 10:25:57;;;;;;;12.57;5.78;;;22.20;99.90;;;;;;5038677;28;20070;-70
2023/08/18 10:28:28;;;;;;;12.75;6.05;;;22.30;99.90;;;;;;5028241;28;146361;-71
2023/08/18 10:31:00;;;;;;;14.60;5.38;;;22.40;99.90;;;;;;5065060;28;20067;-72
2023/08/18 10:33:32;;;;;;;12.68;4.90;;;22.60;99.90;;;;;;5010351;28;205903;-75
2023/08/18 10:36:01;;;;;;;16.30;5.30;;;22.80;99.90;;;;;;5057914;28;20055;-72
2023/08/18 10:38:28;;;;;;;13.50;5.40;;;22.90;99.90;;;;;;5031879;28;195391;-72
2023/08/18 10:40:55;;;;;;;11.82;5.47;;;23.00;99.90;;;;;;5057960;28;20052;-71
2023/08/18 10:43:25;;;;;;;13.27;5.40;;;23.10;99.90;;;;;;5004053;28;20129;-71
2023/08/18 10:45:59;;;;;;;11.35;5.32;;;23.20;99.90;;;;;;5056218;28;20044;-71
2023/08/18 10:48:32;;;;;;;11.88;5.43;;;23.20;99.90;;;;;;4997742;28;232590;-70
2023/08/18 10:50:59;;;;;;;14.18;5.78;;;23.20;99.90;;;;;;5061042;28;20099;-72
2023/08/18 10:53:31;;;;;;;12.88;5.60;;;23.30;99.90;;;;;;5021616;28;94302;-72
2023/08/18 10:55:58;;;;;;;10.82;5.28;;;23.30;99.90;;;;;;5057838;28;20629;-71
2023/08/18 10:58:25;;;;;;;13.25;5.15;;;23.50;99.90;;;;;;5020140;28;199593;-73
2023/08/18 11:00:51;;;;;;;10.88;4.68;;;23.50;99.90;;;;;;5065479;28;20052;-72
2023/08/18 11:03:18;;;;;;;11.40;5.30;;;23.70;99.90;;;;;;5019672;28;138655;-70
2023/08/18 11:05:46;;;;;;;11.93;5.13;;;23.70;99.90;;;;;;5061000;28;20048;-75
2023/08/18 11:08:12;;;;;;;12.75;5.28;;;23.70;99.90;;;;;;5016553;28;150905;-71
2023/08/18 11:10:40;;;;;;;11.75;5.10;;;23.80;99.90;;;;;;5060978;28;20040;-70
2023/08/18 11:13:10;;;;;;;11.57;5.32;;;23.90;99.90;;;;;;4997577;28;235834;-70
2023/08/18 11:15:37;;;;;;;12.85;5.30;;;24.00;99.90;;;;;;5044575;28;20045;-71
2023/08/18 11:18:03;;;;;;;11.75;5.20;;;24.10;99.90;;;;;;4993326;28;184610;-72
2023/08/18 11:20:29;;;;;;;12.43;5.93;;;24.20;99.90;;;;;;5035124;28;20084;-71
2023/08/18 11:22:57;;;;;;;12.30;5.80;;;24.30;99.90;;;;;;4991697;28;26249;-71
2023/08/18 11:25:24;;;;;;;15.25;6.10;;;24.50;99.90;;;;;;5038408;28;20049;-72
2023/08/18 11:27:52;;;;;;;14.23;5.63;;;24.90;99.90;;;;;;4999842;28;203289;-71
2023/08/18 11:30:19;;;;;;;12.32;5.30;;;25.40;99.90;;;;;;5036492;28;20075;-74
2023/08/18 11:32:46;;;;;;;12.77;5.30;;;25.90;99.90;;;;;;4995454;28;20053;-72
2023/08/18 11:35:13;;;;;;;11.93;5.32;;;26.60;99.90;;;;;;5056206;28;20059;-72
2023/08/18 11:37:41;;;;;;;11.63;5.10;;;27.00;99.90;;;;;;5012082;28;180098;-71
2023/08/18 11:40:12;;;;;;;12.45;5.78;;;27.50;99.90;;;;;;5058606;28;20049;-73
2023/08/18 11:42:42;;;;;;;11.73;5.35;;;27.50;99.90;;;;;;5017106;28;40934;-71
2023/08/18 11:45:16;;;;;;;12.25;5.32;;;27.50;99.90;;;;;;5057296;28;20048;-71
2023/08/18 11:48:03;;;;;;;12.23;5.07;;;27.50;99.90;;;;;;5015857;28;129900;-71
2023/08/18 11:50:35;;;;;;;14.85;5.32;;;27.60;99.90;;;;;;5060467;28;20060;-73
2023/08/18 11:53:03;;;;;;;14.40;5.10;;;27.60;99.90;;;;;;5006438;28;201668;-70
2023/08/18 11:55:34;;;;;;;11.25;5.32;;;27.70;99.90;;;;;;5064728;28;20067;-70
2023/08/18 11:58:05;;;;;;;12.00;5.68;;;27.70;99.90;;;;;;5009519;28;219835;-70
2023/08/18 12:00:35;;;;;;;14.02;5.72;;;28.00;99.90;;;;;;5062535;28;20056;-72
2023/08/18 12:03:07;;;;;;;10.93;5.72;;;28.20;99.90;;;;;;5020816;28;51538;-70
2023/08/18 12:05:38;;;;;;;13.32;5.45;;;28.40;99.90;;;;;;5059854;28;20057;-71
2023/08/18 12:08:09;;;;;;;10.13;4.82;;;28.40;99.90;;;;;;5015084;28;175203;-72
2023/08/18 12:10:35;;;;;;;11.88;5.18;;;29.00;99.90;;;;;;5061164;28;20430;-71
2023/08/18 12:13:01;;;;;;;10.18;5.28;;;29.40;99.90;;;;;;5031351;28;79877;-71
2023/08/18 12:15:27;;;;;;;9.32;4.25;;;29.60;99.60;;;;;;5067033;28;20063;-71
2023/08/18 12:17:54;;;;;;;11.52;4.50;;;29.30;99.50;;;;;;5015978;28;189720;-71
2023/08/18 12:20:21;;;;;;;10.45;4.78;;;29.00;99.40;;;;;;5059976;28;20254;-71
2023/08/18 12:22:51;;;;;;;10.02;5.03;;;28.70;99.50;;;;;;5024859;28;171290;-71
2023/08/18 12:25:18;;;;;;;11.57;4.90;;;28.40;99.50;;;;;;5059790;28;20611;-72
2023/08/18 12:27:48;;;;;;;12.45;5.35;;;28.20;99.80;;;;;;5019144;28;74899;-72
2023/08/18 12:30:15;;;;;;;10.23;4.90;;;28.00;99.80;;;;;;5051913;28;20036;-71
2023/08/18 12:32:44;;;;;;;11.20;5.35;;;27.90;99.90;;;;;;5009192;28;142895;-70
2023/08/18 12:35:10;;;;;;;11.93;5.05;;;27.90;99.90;;;;;;5056318;28;20071;-74